Terminal Aerodrome Forecast
Issued by NWS Goodland, KS

Home | Current Version | Previous Version | Text Only | Print | Product List | Glossary On
Versions: 1 2 3 4 5 6 7 8 9 10 11 12 13 14 15 16 17
000
FTUS43 KGLD 260819 AAA
TAFGLD
TAF AMD
KGLD 260819Z 2608/2706 12012G18KT P6SM SCT008 BKN015
     FM261000 13008KT 1SM -DZ BR SCT003 BKN005
     FM261300 20007KT P6SM SCT130
     FM261700 18013G18KT P6SM SCT100 SCT250=

USA.gov is the U.S. government's official web portal to all federal, state and local government web resources and services.